« Back
NWS Peachtree City, Ga » Text Product » AHN Terminal Aerodrome Forecast


Printer-friendly Version
Current Version              Previous Versions:   1  2  3  4  5  6  7  8  9  

Terminal Aerodrome Forecast

535
FTUS42 KFFC 310534
TAFAHN
TAF
KAHN 310534Z 3106/0106 00000KT P6SM FEW250
     FM311000 04004KT P6SM SCT060 SCT250
     FM311600 07007KT P6SM FEW030
     FM312100 04007KT P6SM SCT040
     FM010000 VRB03KT P6SM SCT060=



USA.gov is the U.S. government's official web portal to all federal, state and local government web resources and services.